Time;durP1;ratioP1;P1;durP2;ratioP2;P2;SDS_P1;SDS_P2;PMS_P1;PMS_P2;Temp;Humidity;BMP_temperature;BMP_pressure;BME280_temperature;BME280_humidity;BME280_pressure;Samples;Min_cycle;Max_cycle;Signal;HPM_P1;HPM_P2
2023/10/12 00:00:40;;;;;;;13.32;6.18;;;;;;;20.63;69.74;100415.41;5034076;28;20055;-80
2023/10/12 00:03:10;;;;;;;11.32;6.05;;;;;;;20.55;70.03;100421.03;5034143;28;20357;-79
2023/10/12 00:05:37;;;;;;;12.93;5.40;;;;;;;20.57;70.11;100420.81;5034045;28;20049;-80
2023/10/12 00:08:10;;;;;;;14.52;6.35;;;;;;;20.56;70.13;100422.66;5033476;28;20076;-80
2023/10/12 00:10:42;;;;;;;12.10;6.40;;;;;;;20.56;70.11;100424.50;5033531;28;20114;-79
2023/10/12 00:13:11;;;;;;;;;;;;;;;20.49;70.38;100424.59;5036547;28;20119;-80
2023/10/12 00:15:45;;;;;;;13.25;6.22;;;;;;;20.39;70.86;100419.00;5028429;28;19928;-80
2023/10/12 00:18:16;;;;;;;13.23;5.85;;;;;;;20.42;70.96;100418.56;5027273;28;20136;-80
2023/10/12 00:20:51;;;;;;;16.70;6.93;;;;;;;20.48;70.62;100415.00;5027952;28;20060;-79
2023/10/12 00:23:18;;;;;;;18.17;6.43;;;;;;;20.38;70.79;100410.22;5035906;28;20476;-80
2023/10/12 00:25:54;;;;;;;13.27;5.82;;;;;;;20.36;70.93;100398.97;5033596;28;20069;-82
2023/10/12 00:28:21;;;;;;;11.93;6.20;;;;;;;20.34;71.15;100390.41;5032840;28;20463;-78
2023/10/12 00:30:49;;;;;;;13.63;6.03;;;;;;;20.36;71.08;100400.81;5032992;28;20053;-79
2023/10/12 00:33:18;;;;;;;16.17;6.50;;;;;;;20.28;71.25;100395.84;5032973;28;20050;-79
2023/10/12 00:35:50;;;;;;;14.18;6.38;;;;;;;20.26;70.86;100385.44;5026069;28;20056;-79
2023/10/12 00:38:18;;;;;;;17.83;6.57;;;;;;;20.23;71.02;100387.75;5032931;28;20525;-79
2023/10/12 00:40:50;;;;;;;14.55;6.75;;;;;;;20.18;71.26;100385.75;5033006;28;20076;-80
2023/10/12 00:43:16;;;;;;;12.38;6.25;;;;;;;20.15;70.87;100375.56;5032826;28;20123;-79
2023/10/12 00:45:43;;;;;;;11.75;6.25;;;;;;;20.12;70.97;100366.22;5032706;28;20053;-78
2023/10/12 00:48:16;;;;;;;13.40;6.13;;;;;;;20.08;71.07;100386.28;5033024;28;20057;-79
2023/10/12 00:50:44;;;;;;;;;;;;;;;20.06;70.98;100382.22;5033603;28;20053;-81
2023/10/12 00:53:22;;;;;;;11.88;6.05;;;;;;;20.02;71.13;100381.84;5032689;28;20008;-79
2023/10/12 00:55:50;;;;;;;10.35;6.55;;;;;;;20.01;71.12;100374.94;5032948;28;20053;-80
2023/10/12 00:58:17;;;;;;;15.45;6.40;;;;;;;19.98;71.43;100386.00;5032307;28;20379;-82
2023/10/12 01:00:46;;;;;;;12.60;6.80;;;;;;;20.01;71.59;100388.22;5032507;28;20049;-79
2023/10/12 01:03:35;;;;;;;14.98;6.30;;;;;;;19.95;71.70;100391.75;5032379;28;20439;-79
2023/10/12 01:06:20;;;;;;;16.05;6.07;;;;;;;19.98;71.50;100391.31;5026917;28;20053;-80
2023/10/12 01:08:47;;;;;;;11.95;6.13;;;;;;;19.97;71.79;100384.38;5024442;28;20128;-81
2023/10/12 01:11:19;;;;;;;16.20;7.13;;;;;;;19.94;71.49;100399.94;5031930;28;20091;-79
2023/10/12 01:13:48;;;;;;;13.80;6.28;;;;;;;19.95;71.53;100406.88;5024532;28;20059;-79
2023/10/12 01:16:22;;;;;;;14.23;6.18;;;;;;;19.95;71.46;100402.38;5024864;28;20372;-79
2023/10/12 01:18:51;;;;;;;15.77;6.60;;;;;;;19.90;71.35;100407.53;5025263;28;20395;-79
2023/10/12 01:21:20;;;;;;;16.17;6.60;;;;;;;19.91;71.40;100406.50;5032435;28;20121;-81
2023/10/12 01:23:50;;;;;;;14.23;6.53;;;;;;;19.86;71.52;100414.31;5032602;28;20495;-79
2023/10/12 01:26:18;;;;;;;12.05;6.40;;;;;;;19.83;71.76;100398.88;5033013;28;20582;-78
2023/10/12 01:28:49;;;;;;;11.45;6.20;;;;;;;19.76;71.87;100390.16;5033318;28;20067;-78
2023/10/12 01:31:23;;;;;;;13.00;6.22;;;;;;;19.76;71.40;100398.13;5034505;28;20049;-78
2023/10/12 01:33:54;;;;;;;12.98;6.93;;;;;;;19.71;71.42;100384.69;5027694;28;20068;-81
2023/10/12 01:36:22;;;;;;;10.00;6.30;;;;;;;19.68;71.63;100396.56;5035499;28;20049;-79
2023/10/12 01:38:52;;;;;;;14.35;6.38;;;;;;;19.53;71.56;100388.97;5032266;28;20053;-78
2023/10/12 01:41:25;;;;;;;11.82;6.40;;;;;;;19.55;71.70;100402.81;5032188;28;20558;-82
2023/10/12 01:43:52;;;;;;;14.05;6.05;;;;;;;19.45;71.62;100420.25;5031913;28;20053;-78
2023/10/12 01:46:21;;;;;;;14.80;6.00;;;;;;;19.48;71.11;100415.31;5031561;28;20053;-79
2023/10/12 01:48:49;;;;;;;12.43;6.82;;;;;;;19.48;71.08;100401.22;5031653;28;20053;-78
2023/10/12 01:51:24;;;;;;;16.02;5.97;;;;;;;19.42;71.45;100421.50;5031615;28;20089;-79
2023/10/12 01:53:54;;;;;;;12.75;6.43;;;;;;;19.39;71.29;100424.59;5024408;28;20068;-77
2023/10/12 01:56:21;;;;;;;15.50;6.18;;;;;;;19.34;71.58;100431.59;5031596;28;20140;-79
2023/10/12 01:58:50;;;;;;;13.15;6.18;;;;;;;19.30;71.27;100433.06;5031223;28;20103;-79
2023/10/12 02:01:20;;;;;;;16.20;6.20;;;;;;;19.29;71.62;100440.22;5038131;28;20053;-78
2023/10/12 02:03:53;;;;;;;13.23;6.45;;;;;;;19.23;71.90;100441.06;5035158;28;20041;-79
2023/10/12 02:06:23;;;;;;;18.33;6.63;;;;;;;19.17;72.03;100463.97;5031272;28;20049;-78
2023/10/12 02:08:52;;;;;;;17.83;6.30;;;;;;;19.10;72.37;100457.09;5031126;28;20144;-79
2023/10/12 02:11:36;;;;;;;14.93;6.15;;;;;;;19.05;72.40;100460.38;5030801;28;20491;-78
2023/10/12 02:14:04;;;;;;;15.80;6.72;;;;;;;19.01;72.49;100459.19;5027830;28;20045;-79
2023/10/12 02:16:31;;;;;;;11.02;5.88;;;;;;;18.97;72.72;100491.66;5024162;28;20050;-79
2023/10/12 02:18:58;;;;;;;11.70;6.45;;;;;;;18.90;74.12;100511.06;5031972;28;20574;-79
2023/10/12 02:21:26;;;;;;;16.02;7.22;;;;;;;18.68;77.50;100530.97;5030706;28;20053;-79
2023/10/12 02:24:09;;;;;;;11.98;6.85;;;;;;;18.41;79.99;100548.81;5030837;28;20049;-78
2023/10/12 02:26:51;;;;;;;13.15;7.57;;;;;;;18.18;81.36;100556.41;5031192;28;20431;-78
2023/10/12 02:29:18;;;;;;;12.75;6.85;;;;;;;18.07;82.85;100552.53;5031030;28;20056;-78
2023/10/12 02:31:55;;;;;;;15.63;7.57;;;;;;;17.90;84.02;100562.78;5022654;28;20482;-79
2023/10/12 02:34:25;;;;;;;15.68;8.32;;;;;;;17.79;84.68;100544.88;5030929;28;20478;-78
2023/10/12 02:37:06;;;;;;;13.95;7.65;;;;;;;17.77;85.83;100554.03;5031441;28;20096;-78
2023/10/12 02:39:37;;;;;;;16.02;8.07;;;;;;;17.66;86.73;100544.03;5030787;28;20046;-82
2023/10/12 02:42:16;;;;;;;15.18;8.13;;;;;;;17.63;87.22;100561.13;5030729;28;20049;-80
2023/10/12 02:44:56;;;;;;;18.35;8.13;;;;;;;17.57;87.75;100575.16;5022779;28;20045;-81
2023/10/12 02:47:23;;;;;;;19.52;10.40;;;;;;;17.59;87.35;100573.13;5031141;28;20045;-78
2023/10/12 02:49:50;;;;;;;15.75;8.43;;;;;;;17.62;86.57;100566.59;5030902;28;20053;-78
2023/10/12 02:52:18;;;;;;;18.00;8.95;;;;;;;17.65;86.89;100579.44;5035022;28;20114;-79
2023/10/12 02:54:50;;;;;;;19.08;8.80;;;;;;;17.57;87.78;100599.78;5028033;28;20511;-79
2023/10/12 02:57:22;;;;;;;18.90;9.15;;;;;;;17.55;87.91;100596.53;5036250;28;20053;-78
2023/10/12 02:59:56;;;;;;;14.50;8.40;;;;;;;17.56;87.75;100579.63;5029058;28;20049;-79
2023/10/12 03:02:27;;;;;;;17.02;8.55;;;;;;;17.52;88.17;100581.06;5035919;28;20050;-80
2023/10/12 03:04:55;;;;;;;14.52;8.75;;;;;;;17.50;88.76;100566.41;5036161;28;20045;-80
2023/10/12 03:07:23;;;;;;;17.58;8.38;;;;;;;17.48;89.90;100560.53;5036699;28;20119;-79
2023/10/12 03:09:55;;;;;;;13.88;8.52;;;;;;;17.49;90.62;100560.28;5036334;28;20049;-79
2023/10/12 03:12:24;;;;;;;24.45;8.25;;;;;;;17.44;91.21;100552.19;5028481;28;20084;-79
2023/10/12 03:14:52;;;;;;;18.92;10.43;;;;;;;17.45;91.81;100556.44;5036562;28;20449;-80
2023/10/12 03:17:19;;;;;;;20.35;10.75;;;;;;;17.45;92.24;100574.16;5028096;28;20328;-83
2023/10/12 03:19:55;;;;;;;17.60;9.73;;;;;;;17.42;92.41;100596.53;5036277;28;20053;-79
2023/10/12 03:22:26;;;;;;;19.63;10.40;;;;;;;17.45;92.50;100606.72;5035720;28;20049;-80
2023/10/12 03:24:53;;;;;;;16.25;9.00;;;;;;;17.42;92.10;100611.59;5036551;28;20046;-80
2023/10/12 03:27:23;;;;;;;21.58;9.25;;;;;;;17.46;92.21;100612.81;5036173;28;20136;-79
2023/10/12 03:30:06;;;;;;;15.98;9.32;;;;;;;17.40;92.37;100606.50;5035792;28;20057;-80
2023/10/12 03:32:33;;;;;;;16.92;9.57;;;;;;;17.41;92.66;100599.38;5035920;28;20315;-79
2023/10/12 03:35:00;;;;;;;14.75;8.95;;;;;;;17.38;92.64;100566.22;5036418;28;20084;-80
2023/10/12 03:37:45;;;;;;;18.30;8.73;;;;;;;17.33;93.35;100552.78;5035882;28;20472;-79
2023/10/12 03:43:08;;;;;;;15.73;8.73;;;;;;;17.41;94.31;100552.56;5035451;28;20569;-79
2023/10/12 03:45:39;;;;;;;18.50;9.00;;;;;;;17.38;93.79;100541.59;5036267;28;20096;-80
2023/10/12 03:48:24;;;;;;;16.63;9.75;;;;;;;17.25;94.77;100542.38;5036726;28;20052;-80
2023/10/12 03:51:17;;;;;;;15.13;9.25;;;;;;;17.30;94.73;100537.31;5028671;28;20109;-80
2023/10/12 03:53:47;;;;;;;;;;;;;;;17.28;94.68;100528.75;5028298;28;20068;-79
2023/10/12 03:56:16;;;;;;;16.92;9.70;;;;;;;17.14;95.95;100540.31;5035446;28;19925;-79
2023/10/12 03:58:47;;;;;;;15.48;8.98;;;;;;;17.02;96.20;100536.63;5033907;28;20064;-80
2023/10/12 04:01:24;;;;;;;19.65;9.98;;;;;;;17.15;96.47;100541.94;5051112;22;20108;-86
2023/10/12 04:04:10;;;;;;;17.50;9.38;;;;;;;17.09;96.97;100534.81;5019300;28;20053;-85
2023/10/12 04:07:05;;;;;;;19.20;9.75;;;;;;;17.04;96.97;100516.91;5021098;28;20083;-85
2023/10/12 04:09:42;;;;;;;17.45;9.80;;;;;;;17.13;97.62;100520.19;5020197;28;20405;-86
2023/10/12 04:12:19;;;;;;;16.30;9.63;;;;;;;17.00;96.29;100517.53;5019808;28;20072;-85
2023/10/12 04:14:48;;;;;;;13.98;10.23;;;;;;;16.99;96.51;100502.69;5007381;28;20047;-84
2023/10/12 04:17:52;;;;;;;18.08;9.68;;;;;;;17.06;95.91;100503.50;5007177;28;20076;-85
2023/10/12 04:20:17;;;;;;;14.82;8.95;;;;;;;17.05;95.89;100504.50;5021483;28;20050;-85
2023/10/12 04:25:32;;;;;;;21.83;10.77;;;;;;;17.11;96.66;100530.97;5012496;28;20058;-86
2023/10/12 04:28:16;;;;;;;14.02;9.88;;;;;;;17.10;97.49;100545.19;5013205;28;20096;-86
2023/10/12 04:31:18;;;;;;;17.25;10.82;;;;;;;17.11;97.45;100551.28;5021984;28;20053;-86
2023/10/12 04:33:43;;;;;;;16.38;9.90;;;;;;;17.12;97.25;100582.81;5021423;28;20228;-86
2023/10/12 04:36:22;;;;;;;18.13;9.60;;;;;;;17.12;97.32;100597.88;5019670;28;20133;-86
2023/10/12 04:38:58;;;;;;;11.77;9.25;;;;;;;17.20;97.12;100589.75;5013588;28;20050;-85
2023/10/12 04:41:38;;;;;;;17.05;9.40;;;;;;;17.21;97.04;100591.38;5022457;28;20063;-85
2023/10/12 04:44:25;;;;;;;14.07;9.50;;;;;;;17.21;97.44;100599.31;5020441;28;20506;-85
2023/10/12 04:46:59;;;;;;;15.07;9.32;;;;;;;17.11;97.84;100618.22;5012278;28;20152;-85
2023/10/12 04:49:53;;;;;;;15.43;9.48;;;;;;;17.10;98.12;100628.97;5017621;28;20049;-86
2023/10/12 04:52:32;;;;;;;19.27;9.55;;;;;;;17.07;97.78;100613.50;5018148;28;20073;-86
2023/10/12 04:55:20;;;;;;;16.75;9.95;;;;;;;17.05;98.27;100631.41;5012531;28;20129;-85
2023/10/12 04:57:50;;;;;;;22.00;9.65;;;;;;;17.12;98.38;100632.25;5019082;28;20050;-86
2023/10/12 05:00:24;;;;;;;16.77;9.63;;;;;;;17.10;98.26;100628.97;5019159;28;20064;-86
2023/10/12 05:03:02;;;;;;;16.88;9.93;;;;;;;17.01;98.67;100620.44;5011830;28;20133;-86
2023/10/12 05:08:20;;;;;;;18.15;10.30;;;;;;;17.02;99.40;100626.50;5020644;28;20042;-85
2023/10/12 05:10:48;;;;;;;16.65;9.73;;;;;;;17.03;99.45;100623.66;5018511;28;20101;-84
2023/10/12 05:13:19;;;;;;;18.58;10.55;;;;;;;16.98;99.39;100614.72;5017636;28;20069;-84
2023/10/12 05:15:54;;;;;;;15.15;10.38;;;;;;;16.92;99.90;100611.03;5010364;28;20051;-85
2023/10/12 05:18:22;;;;;;;18.58;10.20;;;;;;;16.90;100.00;100619.16;5009721;28;20047;-86
2023/10/12 05:20:50;;;;;;;19.10;10.40;;;;;;;16.87;100.00;100622.22;5009714;28;20058;-84
2023/10/12 05:23:17;;;;;;;17.58;10.45;;;;;;;16.71;100.00;100622.53;5018392;28;20436;-85
2023/10/12 05:26:07;;;;;;;14.38;10.10;;;;;;;16.69;100.00;100623.72;5011993;28;20056;-85
2023/10/12 05:28:37;;;;;;;18.35;10.32;;;;;;;16.73;100.00;100628.44;5019794;28;20586;-86
2023/10/12 05:31:10;;;;;;;17.65;10.57;;;;;;;16.72;100.00;100632.09;5019832;28;20343;-86
2023/10/12 05:33:43;;;;;;;17.58;10.32;;;;;;;16.67;100.00;100639.78;5019524;28;20049;-85
2023/10/12 05:36:11;;;;;;;;;;;;;;;16.59;100.00;100642.56;5019497;28;20045;-86
2023/10/12 05:38:39;;;;;;;23.15;10.73;;;;;;;16.58;100.00;100646.19;5018849;28;19964;-85
2023/10/12 05:41:09;;;;;;;17.88;10.55;;;;;;;16.69;100.00;100652.81;5018510;28;20094;-85
2023/10/12 05:43:39;;;;;;;17.15;10.80;;;;;;;16.69;100.00;100656.25;5025347;28;20042;-86
2023/10/12 05:46:13;;;;;;;15.07;10.48;;;;;;;16.57;100.00;100648.03;5020354;28;20068;-87
2023/10/12 05:48:45;;;;;;;18.23;10.70;;;;;;;16.68;100.00;100644.06;5010840;28;20100;-86
2023/10/12 05:51:14;;;;;;;15.48;10.15;;;;;;;16.63;100.00;100643.78;5019890;28;20046;-86
2023/10/12 05:53:41;;;;;;;16.45;9.93;;;;;;;16.47;100.00;100647.59;5021079;28;20053;-85
2023/10/12 05:56:07;;;;;;;16.05;10.57;;;;;;;16.46;100.00;100650.41;5021701;28;20111;-82
2023/10/12 05:58:35;;;;;;;18.25;9.43;;;;;;;16.45;100.00;100654.06;5020964;28;20080;-85
2023/10/12 06:01:08;;;;;;;15.80;10.38;;;;;;;16.47;100.00;100665.25;5021237;28;20492;-85
2023/10/12 06:03:36;;;;;;;15.55;9.90;;;;;;;16.46;100.00;100668.91;5021208;28;20050;-86
2023/10/12 06:06:03;;;;;;;16.80;10.57;;;;;;;16.49;100.00;100671.97;5023337;28;20050;-85
2023/10/12 06:08:32;;;;;;;21.30;10.52;;;;;;;16.44;100.00;100674.38;5020826;28;20056;-85
2023/10/12 06:10:59;;;;;;;15.57;11.38;;;;;;;16.57;100.00;100668.34;5012160;28;20050;-85
2023/10/12 06:13:31;;;;;;;15.68;10.45;;;;;;;16.47;100.00;100670.53;5020557;28;20065;-85
2023/10/12 06:15:57;;;;;;;19.23;9.95;;;;;;;16.48;100.00;100680.09;5006743;28;20051;-85
2023/10/12 06:18:25;;;;;;;14.07;10.13;;;;;;;16.49;100.00;100679.91;5001078;28;20476;-84
2023/10/12 06:20:58;;;;;;;22.02;10.77;;;;;;;16.46;100.00;100675.00;5019877;28;20427;-85
2023/10/12 06:23:24;;;;;;;;;;;;;;;16.37;100.00;100676.16;5020375;28;20057;-85
2023/10/12 06:25:52;;;;;;;17.60;10.65;;;;;;;16.27;100.00;100671.22;5023351;28;19999;-85
2023/10/12 06:28:19;;;;;;;14.60;9.98;;;;;;;16.37;100.00;100678.78;5024574;28;20069;-84
2023/10/12 06:30:46;;;;;;;15.90;10.95;;;;;;;16.36;100.00;100689.56;5017238;28;20422;-85
2023/10/12 06:33:15;;;;;;;17.38;10.50;;;;;;;16.46;100.00;100693.50;5025291;28;20121;-86
2023/10/12 06:35:58;;;;;;;20.83;11.13;;;;;;;16.33;100.00;100690.75;5025222;28;20050;-83
2023/10/12 06:38:36;;;;;;;19.75;10.63;;;;;;;16.37;100.00;100696.47;5025066;28;20081;-86
2023/10/12 06:43:58;;;;;;;17.55;10.43;;;;;;;16.39;100.00;100702.38;5017348;28;20106;-85
2023/10/12 06:46:27;;;;;;;14.13;9.68;;;;;;;16.45;100.00;100712.16;5026494;28;20046;-85
2023/10/12 06:48:59;;;;;;;19.33;10.63;;;;;;;16.42;100.00;100710.72;5017841;28;20046;-84
2023/10/12 06:51:28;;;;;;;17.90;10.20;;;;;;;16.30;100.00;100714.06;5027127;28;20050;-85
2023/10/12 06:54:06;;;;;;;16.40;10.35;;;;;;;16.26;100.00;100727.66;5027758;28;20069;-83
2023/10/12 06:56:38;;;;;;;19.77;10.27;;;;;;;16.40;100.00;100715.38;5026812;28;20153;-82
2023/10/12 06:59:11;;;;;;;14.95;10.35;;;;;;;16.37;100.00;100721.06;5016544;28;20058;-84
2023/10/12 07:01:51;;;;;;;15.13;10.18;;;;;;;16.33;100.00;100722.44;5024648;28;20073;-84
2023/10/12 07:04:20;;;;;;;16.92;10.77;;;;;;;16.30;100.00;100714.91;5029755;28;20050;-84
2023/10/12 07:06:56;;;;;;;17.95;11.07;;;;;;;16.22;100.00;100722.94;5020523;28;20057;-85
2023/10/12 07:09:38;;;;;;;18.10;10.45;;;;;;;16.21;100.00;100739.78;5022659;28;20054;-83
2023/10/12 07:12:08;;;;;;;16.17;10.50;;;;;;;16.30;100.00;100743.13;5021382;28;20550;-85
2023/10/12 07:14:38;;;;;;;18.50;11.70;;;;;;;16.25;100.00;100735.78;5025589;28;20132;-85
2023/10/12 07:17:07;;;;;;;15.98;10.15;;;;;;;16.33;100.00;100743.56;5023957;28;20049;-85
2023/10/12 07:19:34;;;;;;;18.08;10.60;;;;;;;16.36;100.00;100743.19;5019144;28;20489;-85
2023/10/12 07:22:07;;;;;;;18.15;11.15;;;;;;;16.39;100.00;100747.28;5026057;28;20064;-84
2023/10/12 07:24:34;;;;;;;16.92;10.60;;;;;;;16.47;100.00;100749.78;5026881;28;20045;-84
2023/10/12 07:27:10;;;;;;;17.80;10.10;;;;;;;16.56;100.00;100749.41;5027962;28;20050;-85
2023/10/12 07:29:44;;;;;;;27.02;10.52;;;;;;;16.47;100.00;100761.16;5028709;28;20104;-86
2023/10/12 07:32:18;;;;;;;22.42;10.60;;;;;;;16.57;100.00;100771.38;5024947;28;20108;-85
2023/10/12 07:34:52;;;;;;;13.82;9.95;;;;;;;16.57;100.00;100755.53;5025649;28;20108;-85
2023/10/12 07:37:18;;;;;;;23.40;10.73;;;;;;;16.56;100.00;100751.25;5024163;28;20137;-85
2023/10/12 07:39:45;;;;;;;16.55;9.80;;;;;;;16.58;100.00;100754.50;5027768;28;20061;-84
2023/10/12 07:42:14;;;;;;;18.88;10.63;;;;;;;16.60;100.00;100757.78;5029291;28;20073;-84
2023/10/12 07:44:42;;;;;;;15.85;9.38;;;;;;;16.58;100.00;100751.88;5031285;28;20056;-83
2023/10/12 07:47:18;;;;;;;17.65;10.13;;;;;;;16.51;100.00;100740.47;5032117;28;20046;-83
2023/10/12 07:49:49;;;;;;;14.95;10.70;;;;;;;16.52;100.00;100736.81;5028235;28;20054;-84
2023/10/12 07:52:31;;;;;;;16.45;9.95;;;;;;;16.63;100.00;100749.47;5027887;28;20089;-84
2023/10/12 07:54:58;;;;;;;18.10;9.73;;;;;;;16.70;100.00;100749.56;5031739;28;20046;-83
2023/10/12 07:57:29;;;;;;;21.45;9.60;;;;;;;16.62;100.00;100755.75;5031453;28;20056;-84
2023/10/12 08:00:29;;;;;;;19.02;10.02;;;;;;;16.61;100.00;100746.19;5032279;28;20046;-84
2023/10/12 08:05:45;;;;;;;23.40;11.48;;;;;;;16.79;100.00;100764.25;5031966;28;20084;-83
2023/10/12 08:08:33;;;;;;;15.88;10.40;;;;;;;16.73;100.00;100749.97;5031704;28;20057;-84
2023/10/12 08:11:08;;;;;;;15.80;9.65;;;;;;;16.80;100.00;100756.13;5020037;28;20084;-85
2023/10/12 08:13:39;;;;;;;15.75;9.23;;;;;;;16.76;100.00;100752.25;5026153;28;20053;-83
2023/10/12 08:16:15;;;;;;;18.77;9.55;;;;;;;16.74;100.00;100751.63;5012277;28;20074;-84
2023/10/12 08:21:31;;;;;;;18.60;10.23;;;;;;;16.81;100.00;100751.66;5012268;28;20053;-85
2023/10/12 08:24:04;;;;;;;14.57;10.23;;;;;;;16.77;100.00;100747.78;5013837;28;20112;-83
2023/10/12 08:26:47;;;;;;;16.90;10.15;;;;;;;16.81;100.00;100762.22;5020222;28;20089;-85
2023/10/12 08:29:23;;;;;;;15.20;10.25;;;;;;;16.89;100.00;100756.81;5022079;28;20076;-85
2023/10/12 08:31:55;;;;;;;18.35;9.45;;;;;;;17.05;100.00;100758.28;5015635;28;20407;-84
2023/10/12 08:37:18;;;;;;;15.13;9.70;;;;;;;17.12;100.00;100753.88;5026260;28;20076;-85
2023/10/12 08:39:53;;;;;;;15.70;10.20;;;;;;;17.15;100.00;100753.47;5025133;28;20056;-84
2023/10/12 08:42:36;;;;;;;16.17;10.38;;;;;;;17.14;100.00;100757.94;5022672;28;20054;-85
2023/10/12 08:45:09;;;;;;;15.88;10.10;;;;;;;17.17;100.00;100757.56;5018453;28;20046;-85
2023/10/12 08:47:50;;;;;;;17.95;9.95;;;;;;;17.17;100.00;100751.44;5023308;28;20467;-85
2023/10/12 08:53:09;;;;;;;15.65;9.95;;;;;;;17.22;100.00;100751.69;5022689;28;20521;-83
2023/10/12 08:55:37;;;;;;;18.10;9.95;;;;;;;17.21;100.00;100758.81;5023698;28;20050;-83
2023/10/12 08:58:22;;;;;;;17.88;10.57;;;;;;;17.16;100.00;100755.94;5021985;28;20137;-84
2023/10/12 09:03:38;;;;;;;19.08;10.98;;;;;;;17.19;100.00;100749.44;5023848;28;20133;-85
2023/10/12 09:06:19;;;;;;;16.13;10.77;;;;;;;17.21;100.00;100744.75;5022057;28;20054;-83
2023/10/12 09:08:47;;;;;;;16.25;9.65;;;;;;;17.28;100.00;100748.25;5014353;28;20583;-84
2023/10/12 09:11:17;;;;;;;18.50;10.30;;;;;;;17.35;100.00;100761.50;5013532;28;20061;-85
2023/10/12 09:13:47;;;;;;;15.90;10.43;;;;;;;17.43;100.00;100754.22;5002787;28;20057;-86
2023/10/12 09:16:17;;;;;;;13.63;9.75;;;;;;;17.47;100.00;100738.78;5018786;28;20103;-84
2023/10/12 09:18:46;;;;;;;19.40;10.45;;;;;;;17.52;100.00;100739.78;5005598;28;20050;-86
2023/10/12 09:21:23;;;;;;;17.10;10.32;;;;;;;17.63;100.00;100750.81;5009074;28;20423;-85
2023/10/12 09:23:52;;;;;;;19.63;10.05;;;;;;;17.73;100.00;100751.28;5009981;28;20078;-85
2023/10/12 09:26:30;;;;;;;19.45;10.40;;;;;;;17.73;100.00;100743.34;5017698;28;20053;-86
2023/10/12 09:29:12;;;;;;;18.27;10.75;;;;;;;17.78;100.00;100754.97;5014708;28;20061;-85
2023/10/12 09:31:54;;;;;;;16.77;10.18;;;;;;;18.00;100.00;100744.19;5010523;28;20057;-83
2023/10/12 09:34:42;;;;;;;14.93;9.82;;;;;;;17.96;100.00;100750.94;5018125;28;20103;-83
2023/10/12 09:37:16;;;;;;;15.13;9.80;;;;;;;18.12;100.00;100753.19;5021763;28;20210;-84
2023/10/12 09:39:45;;;;;;;17.90;10.70;;;;;;;18.34;100.00;100756.47;5022079;28;20088;-83
2023/10/12 09:42:22;;;;;;;16.70;10.60;;;;;;;18.40;99.73;100750.38;5020673;28;20046;-84
2023/10/12 09:44:58;;;;;;;13.85;10.00;;;;;;;18.60;99.35;100758.28;5013519;28;20088;-84
2023/10/12 09:47:35;;;;;;;17.95;10.23;;;;;;;18.55;99.50;100756.25;5020821;28;20053;-84
2023/10/12 09:50:13;;;;;;;17.05;10.52;;;;;;;18.53;98.29;100742.38;5021468;28;20049;-83
2023/10/12 09:52:46;;;;;;;17.48;10.02;;;;;;;18.71;97.40;100734.66;5021550;28;20077;-84
2023/10/12 09:55:15;;;;;;;19.42;9.88;;;;;;;18.99;96.65;100736.22;5021678;28;20056;-83
2023/10/12 09:57:49;;;;;;;18.88;9.95;;;;;;;19.05;96.25;100735.38;5020756;28;20045;-83
2023/10/12 10:00:28;;;;;;;22.40;10.70;;;;;;;19.08;95.78;100732.31;5046089;23;20049;-78
2023/10/12 10:03:10;;;;;;;17.63;10.55;;;;;;;18.86;95.71;100706.06;5046619;28;20052;-78
2023/10/12 10:05:52;;;;;;;16.70;9.03;;;;;;;19.06;95.21;100723.75;5046267;28;20067;-78
2023/10/12 10:08:26;;;;;;;14.98;10.15;;;;;;;19.11;95.75;100723.94;5047037;28;20326;-78
2023/10/12 10:10:57;;;;;;;14.77;10.00;;;;;;;19.02;95.32;100722.53;5034526;28;20061;-78
2023/10/12 10:13:46;;;;;;;13.80;9.80;;;;;;;19.07;94.85;100726.19;5029164;28;20103;-78
2023/10/12 10:16:17;;;;;;;16.27;9.70;;;;;;;19.31;94.40;100740.59;5016774;28;20078;-78
2023/10/12 10:18:49;;;;;;;15.05;9.75;;;;;;;19.45;93.89;100731.53;5024898;28;20084;-78
2023/10/12 10:21:22;;;;;;;14.82;10.43;;;;;;;19.58;93.12;100724.56;5020854;28;20041;-78
2023/10/12 10:23:52;;;;;;;13.25;9.45;;;;;;;19.65;93.10;100725.34;5024090;28;20555;-77
2023/10/12 10:26:23;;;;;;;15.48;9.80;;;;;;;19.76;92.93;100719.38;5023826;28;20077;-78
2023/10/12 10:29:04;;;;;;;17.30;9.77;;;;;;;19.74;91.96;100716.13;5024419;28;20092;-77
2023/10/12 10:31:33;;;;;;;16.60;9.85;;;;;;;19.59;91.47;100715.59;5024673;28;20108;-78
2023/10/12 10:34:03;;;;;;;22.73;9.57;;;;;;;19.55;90.89;100715.19;5026615;28;20121;-78
2023/10/12 10:36:35;;;;;;;12.23;9.55;;;;;;;19.60;91.52;100719.88;5024163;28;20053;-78
2023/10/12 10:42:31;;;;;;;13.77;10.10;;;;;;;19.43;91.17;100728.28;5020678;28;20037;-78
2023/10/12 10:45:12;;;;;;;17.15;9.20;;;;;;;19.34;91.33;100734.88;5031464;28;20057;-78
2023/10/12 10:47:39;;;;;;;15.35;9.65;;;;;;;19.26;91.68;100727.16;5026324;28;20045;-78
2023/10/12 10:50:15;;;;;;;16.75;10.02;;;;;;;19.18;91.91;100719.44;5020763;28;20393;-78
2023/10/12 10:52:44;;;;;;;14.60;9.88;;;;;;;19.21;92.03;100714.53;5027179;28;20049;-78
2023/10/12 10:55:11;;;;;;;17.17;9.85;;;;;;;19.45;91.86;100712.97;5022181;28;20046;-78
2023/10/12 10:57:39;;;;;;;16.42;9.52;;;;;;;19.49;91.80;100714.16;5020591;28;20057;-78
2023/10/12 11:00:13;;;;;;;16.33;9.50;;;;;;;19.58;91.29;100708.66;5006670;28;20145;-78
2023/10/12 11:02:40;;;;;;;15.45;9.40;;;;;;;19.62;91.62;100709.84;5015171;28;20148;-78
2023/10/12 11:05:10;;;;;;;23.10;10.63;;;;;;;19.47;90.77;100702.94;5017545;28;20120;-78
2023/10/12 11:07:39;;;;;;;15.90;9.27;;;;;;;19.63;90.44;100695.56;5011756;28;20484;-78
2023/10/12 11:10:08;;;;;;;13.48;8.65;;;;;;;19.78;89.27;100694.22;5018609;28;20081;-77
2023/10/12 11:12:36;;;;;;;14.93;9.35;;;;;;;19.79;88.88;100693.22;4996722;28;20064;-78
2023/10/12 11:15:07;;;;;;;12.20;8.57;;;;;;;19.86;89.23;100685.97;5010220;28;20046;-78
2023/10/12 11:17:40;;;;;;;11.98;8.75;;;;;;;19.93;89.73;100693.09;5014811;28;20508;-77
2023/10/12 11:20:09;;;;;;;15.55;9.18;;;;;;;20.05;88.83;100683.41;5019167;28;20534;-78
2023/10/12 11:22:37;;;;;;;17.77;9.80;;;;;;;20.19;88.92;100690.25;5026288;28;20277;-78
2023/10/12 11:25:05;;;;;;;14.18;9.02;;;;;;;20.26;87.49;100685.69;5027250;28;20111;-78
2023/10/12 11:27:34;;;;;;;14.70;8.55;;;;;;;20.30;87.39;100680.75;5025246;28;20099;-79
2023/10/12 11:30:06;;;;;;;11.38;8.27;;;;;;;20.43;86.93;100662.03;5024635;28;20045;-79
2023/10/12 11:32:53;;;;;;;15.13;8.60;;;;;;;20.41;86.24;100656.13;5017918;28;20057;-78
2023/10/12 11:35:33;;;;;;;17.73;8.15;;;;;;;20.41;86.52;100659.59;5019676;28;20117;-78
2023/10/12 11:38:00;;;;;;;15.95;8.95;;;;;;;20.37;86.05;100652.25;5009306;28;20063;-78
2023/10/12 11:40:30;;;;;;;13.55;8.27;;;;;;;20.43;85.17;100638.09;5023877;28;20056;-78
2023/10/12 11:42:58;;;;;;;17.30;8.68;;;;;;;20.43;85.95;100632.78;5023758;28;20050;-77
2023/10/12 11:45:33;;;;;;;14.77;8.05;;;;;;;20.50;85.54;100639.66;5023263;28;20141;-79
2023/10/12 11:48:15;;;;;;;14.57;8.65;;;;;;;20.60;84.61;100625.88;5023501;28;20089;-78
2023/10/12 11:50:41;;;;;;;11.60;7.93;;;;;;;20.59;84.48;100626.09;5014941;28;20552;-78
2023/10/12 11:53:08;;;;;;;13.38;7.55;;;;;;;20.58;83.94;100622.63;5023602;28;20176;-78
2023/10/12 11:55:34;;;;;;;15.98;8.27;;;;;;;20.57;83.86;100613.03;5023945;28;20128;-78
2023/10/12 11:58:07;;;;;;;18.17;7.93;;;;;;;20.77;83.84;100618.94;5015325;28;20670;-79
2023/10/12 12:00:37;;;;;;;17.60;7.95;;;;;;;20.84;83.12;100610.84;5024456;28;20046;-80
2023/10/12 12:03:05;;;;;;;12.27;8.02;;;;;;;20.93;82.82;100612.16;5023253;28;20050;-79
2023/10/12 12:05:33;;;;;;;16.55;8.68;;;;;;;20.74;82.76;100611.41;5026867;28;20050;-79